Time;durP1;ratioP1;P1;durP2;ratioP2;P2;SDS_P1;SDS_P2;PMS_P1;PMS_P2;Temp;Humidity;BMP_temperature;BMP_pressure;BME280_temperature;BME280_humidity;BME280_pressure;Samples;Min_cycle;Max_cycle;Signal;HPM_P1;HPM_P2
2022/07/17 00:00:08;;;;;;;114.35;18.75;;;;;;;15.50;100.00;100987.13;1758613;80;21453;-89
2022/07/17 00:02:35;;;;;;;72.47;13.48;;;;;;;15.46;100.00;100985.27;1758927;80;21000;-89
2022/07/17 00:05:03;;;;;;;21.20;10.63;;;;;;;15.42;100.00;100990.42;1758365;80;21028;-89
2022/07/17 00:07:31;;;;;;;12.63;9.98;;;;;;;15.38;100.00;100988.25;1759037;81;21076;-89
2022/07/17 00:10:00;;;;;;;13.00;8.95;;;;;;;15.30;100.00;100994.16;1759107;80;20993;-89
2022/07/17 00:12:28;;;;;;;14.47;9.70;;;;;;;15.21;100.00;100997.60;1758954;81;20997;-89
2022/07/17 00:14:56;;;;;;;11.93;9.95;;;;;;;15.14;100.00;100999.47;1766054;80;21009;-90
2022/07/17 00:17:23;;;;;;;10.48;9.30;;;;;;;15.07;100.00;100997.05;1785481;79;21033;-89
2022/07/17 00:19:50;;;;;;;11.15;8.83;;;;;;;15.01;100.00;100996.28;1785425;79;21786;-89
2022/07/17 00:22:17;;;;;;;12.03;9.23;;;;;;;14.93;100.00;100993.01;1785350;79;21029;-89
2022/07/17 00:24:44;;;;;;;10.75;9.35;;;;;;;14.87;100.00;100988.30;1785748;79;21777;-89
2022/07/17 00:27:12;;;;;;;12.28;9.23;;;;;;;14.82;100.00;100988.70;1785790;80;21017;-88
2022/07/17 00:29:39;;;;;;;9.50;8.50;;;;;;;14.78;100.00;100987.30;1785865;79;21554;-89
2022/07/17 00:32:06;;;;;;;10.18;8.55;;;;;;;14.77;100.00;100989.60;1785380;79;21021;-89
2022/07/17 00:34:33;;;;;;;13.45;9.08;;;;;;;14.76;100.00;100989.25;1785764;79;21088;-88
2022/07/17 00:37:01;;;;;;;10.80;9.60;;;;;;;14.77;100.00;100988.75;1785140;79;21156;-89
2022/07/17 00:39:28;;;;;;;10.28;8.85;;;;;;;14.73;100.00;100990.00;1785817;79;21000;-88
2022/07/17 00:41:56;;;;;;;10.50;8.95;;;;;;;14.65;100.00;100987.53;1785303;79;21071;-89
2022/07/17 00:44:27;;;;;;;12.70;9.08;;;;;;;14.61;100.00;100987.93;1785675;79;21075;-89
2022/07/17 00:46:54;;;;;;;9.90;8.88;;;;;;;14.55;100.00;100989.75;1785805;79;20993;-89
2022/07/17 00:49:21;;;;;;;9.65;8.65;;;;;;;14.49;100.00;100985.89;1785402;80;21763;-89
2022/07/17 00:51:49;;;;;;;13.22;8.73;;;;;;;14.47;100.00;100983.38;1785504;80;21005;-89
2022/07/17 00:54:18;;;;;;;9.73;8.73;;;;;;;14.46;100.00;100980.89;1785572;80;21530;-89
2022/07/17 00:56:47;;;;;;;9.03;7.80;;;;;;;14.44;100.00;100978.42;1785539;79;21478;-89
2022/07/17 00:59:15;;;;;;;9.15;8.25;;;;;;;14.44;100.00;100982.34;1785935;79;21688;-90
2022/07/17 01:01:43;;;;;;;9.30;8.43;;;;;;;14.45;100.00;100977.46;1785572;79;21106;-90
2022/07/17 01:04:10;;;;;;;9.05;8.15;;;;;;;14.47;100.00;100983.88;1785857;79;21065;-89
2022/07/17 01:06:37;;;;;;;11.25;8.63;;;;;;;14.46;100.00;100985.64;1785721;79;21064;-90
2022/07/17 01:09:04;;;;;;;9.40;8.40;;;;;;;14.46;100.00;100988.27;1785775;79;21068;-89
2022/07/17 01:11:33;;;;;;;10.72;9.35;;;;;;;14.46;100.00;100981.72;1785580;80;21079;-89
2022/07/17 01:14:00;;;;;;;13.32;9.60;;;;;;;14.44;100.00;100986.28;1785680;80;21130;-89
2022/07/17 01:16:27;;;;;;;10.75;8.83;;;;;;;14.41;100.00;100979.98;1785646;79;21056;-90
2022/07/17 01:18:56;;;;;;;11.90;9.15;;;;;;;14.40;100.00;100980.13;1785680;79;20985;-89
2022/07/17 01:21:23;;;;;;;11.38;9.10;;;;;;;14.39;100.00;100979.77;1785651;79;21594;-89
2022/07/17 01:23:50;;;;;;;10.70;9.15;;;;;;;14.36;100.00;100971.20;1786100;80;21080;-89
2022/07/17 01:26:18;;;;;;;9.93;8.95;;;;;;;14.33;100.00;100973.26;1785516;80;21282;-90
2022/07/17 01:28:45;;;;;;;9.23;8.25;;;;;;;14.32;100.00;100967.20;1785640;79;21598;-90
2022/07/17 01:31:12;;;;;;;9.18;8.05;;;;;;;14.31;100.00;100965.54;1785699;79;21091;-89
2022/07/17 01:33:40;;;;;;;10.08;8.40;;;;;;;14.32;100.00;100964.58;1785454;79;21063;-89
2022/07/17 01:36:07;;;;;;;9.38;8.48;;;;;;;14.32;100.00;100953.26;1785624;79;21657;-92
2022/07/17 01:38:35;;;;;;;9.85;8.05;;;;;;;14.32;100.00;100951.95;1785665;80;21812;-89
2022/07/17 01:41:02;;;;;;;9.98;8.55;;;;;;;14.32;100.00;100948.87;1785164;79;21072;-90
2022/07/17 01:43:29;;;;;;;10.68;8.50;;;;;;;14.33;100.00;100951.84;1787630;79;21040;-89
2022/07/17 01:45:59;;;;;;;8.73;7.67;;;;;;;14.36;100.00;100954.67;1808494;78;21047;-90
2022/07/17 01:48:28;;;;;;;8.70;7.90;;;;;;;14.33;100.00;100955.77;1808983;78;21546;-90
2022/07/17 01:50:56;;;;;;;8.55;7.72;;;;;;;14.26;100.00;100959.03;1808548;78;21903;-89
2022/07/17 01:53:23;;;;;;;9.20;8.23;;;;;;;14.20;100.00;100969.54;1809176;79;21063;-89
2022/07/17 01:55:50;;;;;;;10.20;7.87;;;;;;;14.17;100.00;100974.56;1808827;78;21102;-89
2022/07/17 01:58:17;;;;;;;14.20;7.85;;;;;;;14.16;100.00;100977.33;1808960;78;21074;-90
2022/07/17 02:00:45;;;;;;;10.53;7.83;;;;;;;14.16;100.00;100979.94;1808548;79;21066;-89
2022/07/17 02:03:14;;;;;;;14.83;8.48;;;;;;;14.15;100.00;100981.72;1808727;78;21043;-89
2022/07/17 02:05:41;;;;;;;8.55;7.78;;;;;;;14.15;100.00;100988.27;1808812;78;21023;-89
2022/07/17 02:08:08;;;;;;;9.70;7.62;;;;;;;14.14;100.00;100987.91;1808962;79;21479;-89
2022/07/17 02:10:35;;;;;;;10.55;7.90;;;;;;;14.12;100.00;100984.61;1808935;78;20997;-90
2022/07/17 02:13:02;;;;;;;8.98;7.97;;;;;;;14.12;100.00;100982.45;1809468;78;21036;-90
2022/07/17 02:15:30;;;;;;;9.58;8.58;;;;;;;14.13;100.00;100989.36;1809329;78;21668;-89
2022/07/17 02:17:57;;;;;;;11.97;8.95;;;;;;;14.15;100.00;100991.38;1809166;78;21114;-90
2022/07/17 02:20:26;;;;;;;9.88;8.58;;;;;;;14.13;100.00;100996.75;1808756;78;21625;-90
2022/07/17 02:22:53;;;;;;;9.15;8.25;;;;;;;14.12;100.00;100997.70;1808790;78;21078;-90
2022/07/17 02:25:20;;;;;;;10.32;8.15;;;;;;;14.10;100.00;101002.23;1808496;79;21910;-90
2022/07/17 02:27:48;;;;;;;9.20;8.28;;;;;;;14.11;100.00;101000.43;1809017;79;21328;-90
2022/07/17 02:30:18;;;;;;;10.58;8.00;;;;;;;14.11;100.00;101003.89;1809139;78;21031;-90
2022/07/17 02:32:46;;;;;;;10.32;8.18;;;;;;;14.10;100.00;101007.47;1808954;79;21064;-90
2022/07/17 02:35:14;;;;;;;8.98;7.47;;;;;;;14.07;100.00;101002.97;1808803;78;21082;-89
2022/07/17 02:37:42;;;;;;;9.18;8.28;;;;;;;14.07;100.00;101010.33;1808959;78;21011;-89
2022/07/17 02:40:12;;;;;;;8.00;7.20;;;;;;;14.08;100.00;101008.07;1809003;79;21008;-89
2022/07/17 02:42:40;;;;;;;7.25;6.55;;;;;;;14.11;100.00;101003.05;1808757;78;21032;-90
2022/07/17 02:45:09;;;;;;;29.45;8.65;;;;;;;14.15;100.00;101001.35;1808481;78;21066;-89
2022/07/17 02:47:37;;;;;;;17.95;7.55;;;;;;;14.23;100.00;101001.19;1809185;79;21027;-89
2022/07/17 02:50:09;;;;;;;16.50;7.55;;;;;;;14.30;100.00;100998.42;1808664;78;21019;-89
2022/07/17 02:52:37;;;;;;;8.30;7.47;;;;;;;14.39;100.00;101002.85;1809282;78;21989;-90
2022/07/17 02:55:06;;;;;;;8.53;7.42;;;;;;;14.47;100.00;100997.79;1808972;78;21091;-90
2022/07/17 02:57:33;;;;;;;8.58;7.58;;;;;;;14.56;100.00;100995.34;1808779;78;21003;-89
2022/07/17 03:00:01;;;;;;;8.25;7.25;;;;;;;14.64;100.00;100992.89;1809118;78;21550;-90
2022/07/17 03:02:29;;;;;;;9.08;7.80;;;;;;;14.74;100.00;100985.92;1808666;78;21066;-89
2022/07/17 03:04:56;;;;;;;8.35;7.45;;;;;;;14.82;100.00;100976.09;1808966;78;21079;-91
2022/07/17 03:07:23;;;;;;;9.55;8.20;;;;;;;14.90;100.00;100980.65;1808767;79;21521;-90
2022/07/17 03:09:50;;;;;;;10.10;7.80;;;;;;;14.99;100.00;100974.10;1808782;78;21078;-90
2022/07/17 03:12:18;;;;;;;10.90;8.95;;;;;;;15.11;100.00;100979.23;1808683;78;22122;-90
2022/07/17 03:14:45;;;;;;;12.13;10.00;;;;;;;15.19;100.00;100974.14;1808310;78;21016;-90
2022/07/17 03:17:12;;;;;;;16.20;9.65;;;;;;;15.30;100.00;100974.48;1808415;78;22182;-90
2022/07/17 03:19:40;;;;;;;12.03;9.18;;;;;;;15.41;100.00;100970.89;1808429;78;21307;-90
2022/07/17 03:22:07;;;;;;;11.60;8.98;;;;;;;15.52;100.00;100962.05;1808591;79;21541;-90
2022/07/17 03:24:34;;;;;;;10.63;8.68;;;;;;;15.63;100.00;100959.29;1808756;78;21082;-90
2022/07/17 03:27:03;;;;;;;8.45;7.65;;;;;;;15.73;100.00;100964.05;1809316;79;21051;-89
2022/07/17 03:29:30;;;;;;;8.75;7.97;;;;;;;15.83;100.00;100967.12;1808758;79;21809;-90
2022/07/17 03:31:58;;;;;;;9.43;8.28;;;;;;;15.93;100.00;100967.97;1808698;79;21506;-89
2022/07/17 03:34:26;;;;;;;20.25;8.98;;;;;;;16.05;100.00;100962.06;1808936;78;21040;-89
2022/07/17 03:36:53;;;;;;;13.53;10.50;;;;;;;16.16;100.00;100962.36;1808951;77;21063;-90
2022/07/17 03:39:21;;;;;;;17.77;15.70;;;;;;;16.27;100.00;100959.57;1808269;78;36459;-90
2022/07/17 03:41:48;;;;;;;24.37;17.90;;;;;;;16.39;100.00;100964.97;1808781;78;21802;-89
2022/07/17 03:44:15;;;;;;;18.20;16.35;;;;;;;16.51;100.00;100968.23;1808741;78;21032;-89
2022/07/17 03:46:42;;;;;;;15.10;12.90;;;;;;;16.62;100.00;100961.98;1806912;78;21059;-89
2022/07/17 03:49:10;;;;;;;12.35;11.05;;;;;;;16.76;100.00;100966.39;1808547;78;20984;-89
2022/07/17 03:51:38;;;;;;;10.08;9.18;;;;;;;16.88;100.00;100965.20;1808679;79;21016;-89
2022/07/17 03:54:05;;;;;;;11.65;10.18;;;;;;;17.01;100.00;100960.93;1808491;78;21103;-89
2022/07/17 03:56:33;;;;;;;13.43;9.55;;;;;;;17.14;100.00;100957.46;1808798;78;21541;-89
2022/07/17 03:59:00;;;;;;;11.08;9.75;;;;;;;17.27;100.00;100954.42;1808523;78;21020;-89
2022/07/17 04:01:27;;;;;;;10.08;9.08;;;;;;;17.42;100.00;100949.96;1809156;78;21016;-89
2022/07/17 04:03:54;;;;;;;11.65;8.68;;;;;;;17.53;100.00;100947.58;1808687;78;20987;-89
2022/07/17 04:06:21;;;;;;;9.33;8.48;;;;;;;17.64;100.00;100943.36;1809017;78;21774;-89
2022/07/17 04:08:50;;;;;;;9.03;7.45;;;;;;;17.77;100.00;100942.48;1808919;78;21044;-89
2022/07/17 04:11:19;;;;;;;8.53;7.35;;;;;;;17.90;100.00;100939.44;1809065;79;21020;-89
2022/07/17 04:13:47;;;;;;;8.68;7.45;;;;;;;18.05;100.00;100937.57;1809090;78;21043;-89
2022/07/17 04:16:15;;;;;;;9.33;8.03;;;;;;;18.16;100.00;100935.96;1809123;78;21034;-89
2022/07/17 04:18:43;;;;;;;8.93;7.37;;;;;;;18.29;100.00;100931.09;1808958;78;21767;-90
2022/07/17 04:21:10;;;;;;;8.08;6.95;;;;;;;18.42;100.00;100922.75;1808923;78;21099;-91
2022/07/17 04:23:38;;;;;;;7.15;6.45;;;;;;;18.54;100.00;100924.59;1808783;79;21030;-89
2022/07/17 04:26:06;;;;;;;8.30;6.37;;;;;;;18.66;100.00;100922.48;1808887;79;21047;-90
2022/07/17 04:28:34;;;;;;;7.83;7.10;;;;;;;18.76;100.00;100923.66;1808766;78;21027;-89
2022/07/17 04:31:02;;;;;;;9.03;6.67;;;;;;;18.86;100.00;100920.38;1808938;78;21116;-91
2022/07/17 04:33:29;;;;;;;7.00;6.30;;;;;;;18.99;100.00;100923.87;1808589;78;22122;-90
2022/07/17 04:35:56;;;;;;;9.80;7.12;;;;;;;19.11;100.00;100919.09;1808857;78;21110;-89
2022/07/17 04:38:24;;;;;;;7.70;7.00;;;;;;;19.25;100.00;100914.17;1808670;79;21102;-90
2022/07/17 04:40:51;;;;;;;7.50;6.28;;;;;;;19.37;100.00;100911.52;1808969;78;21075;-91
2022/07/17 04:43:18;;;;;;;6.85;6.15;;;;;;;19.49;100.00;100915.48;1809322;78;21114;-90
2022/07/17 04:45:46;;;;;;;7.08;6.40;;;;;;;19.58;100.00;100910.19;1808902;78;21518;-90
2022/07/17 04:48:13;;;;;;;7.40;6.70;;;;;;;19.67;100.00;100909.16;1808626;78;21050;-90
2022/07/17 04:50:40;;;;;;;7.33;6.62;;;;;;;19.74;100.00;100914.12;1808855;78;21516;-90
2022/07/17 04:53:07;;;;;;;7.70;7.00;;;;;;;19.85;100.00;100918.25;1808983;79;21067;-90
2022/07/17 04:55:34;;;;;;;8.25;7.45;;;;;;;19.97;100.00;100906.81;1803969;78;21161;-89
2022/07/17 04:58:02;;;;;;;9.75;8.73;;;;;;;20.04;100.00;100902.98;1795234;78;21065;-89
2022/07/17 05:00:29;;;;;;;9.23;8.03;;;;;;;20.10;100.00;100896.52;1795077;78;21044;-90
2022/07/17 05:02:58;;;;;;;8.53;7.72;;;;;;;20.17;100.00;100897.48;1798092;78;21570;-91
2022/07/17 05:05:25;;;;;;;8.43;7.62;;;;;;;20.25;100.00;100899.75;1804847;78;21019;-90
2022/07/17 05:07:53;;;;;;;8.15;7.35;;;;;;;20.33;100.00;100886.50;1808832;78;21182;-90
2022/07/17 05:10:20;;;;;;;7.62;6.92;;;;;;;20.45;100.00;100886.93;1808972;78;21083;-92
2022/07/17 05:12:48;;;;;;;6.90;6.30;;;;;;;20.57;100.00;100879.42;1808854;78;20977;-91
2022/07/17 05:15:16;;;;;;;8.63;6.90;;;;;;;20.72;100.00;100884.80;1808567;78;21150;-90
2022/07/17 05:17:45;;;;;;;6.65;6.05;;;;;;;20.87;100.00;100893.64;1809306;79;21059;-91
2022/07/17 05:20:12;;;;;;;10.82;6.42;;;;;;;21.03;100.00;100889.22;1808862;78;21772;-91
2022/07/17 05:22:39;;;;;;;7.62;6.37;;;;;;;21.15;100.00;100893.11;1808933;78;20996;-91
2022/07/17 05:25:08;;;;;;;6.85;5.87;;;;;;;21.28;100.00;100887.18;1808464;78;21071;-92
2022/07/17 05:27:36;;;;;;;5.90;5.40;;;;;;;21.43;100.00;100889.87;1797978;78;21559;-92
2022/07/17 05:30:04;;;;;;;6.35;5.75;;;;;;;21.56;100.00;100886.59;1800002;78;21055;-91
2022/07/17 05:32:32;;;;;;;6.03;4.72;;;;;;;21.61;100.00;100878.95;1801340;79;21126;-90
2022/07/17 05:34:59;;;;;;;6.28;5.67;;;;;;;21.64;100.00;100877.75;1800006;78;21653;-93
2022/07/17 05:37:26;;;;;;;5.80;5.15;;;;;;;21.69;100.00;100880.19;1795289;79;21043;-91
2022/07/17 05:39:54;;;;;;;6.92;4.92;;;;;;;21.76;100.00;100886.91;1800640;78;21001;-91
2022/07/17 05:42:21;;;;;;;6.95;5.45;;;;;;;21.87;100.00;100889.09;1802484;78;21071;-91
2022/07/17 05:44:49;;;;;;;6.20;5.60;;;;;;;22.03;100.00;100888.08;1799188;79;21122;-91
2022/07/17 05:47:16;;;;;;;6.78;5.30;;;;;;;22.22;100.00;100877.91;1797887;78;21004;-92
2022/07/17 05:49:43;;;;;;;6.70;5.12;;;;;;;22.39;100.00;100870.58;1800588;79;21013;-92
2022/07/17 05:52:10;;;;;;;5.80;5.12;;;;;;;22.57;100.00;100872.80;1801872;78;21138;-92
2022/07/17 05:54:38;;;;;;;5.58;4.95;;;;;;;22.79;100.00;100874.16;1790301;79;21650;-92
2022/07/17 05:57:05;;;;;;;6.33;5.10;;;;;;;22.98;100.00;100872.17;1789479;78;21152;-92
2022/07/17 05:59:32;;;;;;;7.45;4.53;;;;;;;23.18;100.00;100876.86;1804033;78;21589;-96
2022/07/17 06:01:59;;;;;;;5.20;4.28;;;;;;;23.42;100.00;100877.44;1802521;78;21020;-93
2022/07/17 06:04:27;;;;;;;16.95;5.20;;;;;;;23.69;100.00;100873.59;1800294;78;21502;-93
2022/07/17 06:06:55;;;;;;;4.60;4.20;;;;;;;23.90;100.00;100871.35;1802006;79;21024;-92
2022/07/17 06:09:22;;;;;;;5.20;4.75;;;;;;;24.05;100.00;100873.91;1795144;78;21098;-91
2022/07/17 06:11:50;;;;;;;5.90;4.40;;;;;;;24.09;100.00;100870.66;1798167;78;21004;-91
2022/07/17 06:14:18;;;;;;;7.72;4.37;;;;;;;24.09;100.00;100867.16;1792652;78;21033;-93
2022/07/17 06:16:46;;;;;;;5.03;4.25;;;;;;;24.09;100.00;100860.52;1751775;81;21299;-93
2022/07/17 06:19:13;;;;;;;5.47;4.28;;;;;;;24.07;100.00;100849.28;1789963;78;21060;-92
2022/07/17 06:21:41;;;;;;;4.67;4.03;;;;;;;24.08;100.00;100846.41;1791992;78;21142;-91
2022/07/17 06:24:08;;;;;;;4.22;3.85;;;;;;;24.17;100.00;100847.04;1794366;78;21890;-91
2022/07/17 06:26:35;;;;;;;5.50;4.40;;;;;;;24.23;100.00;100854.24;1798364;78;21091;-89
2022/07/17 06:29:02;;;;;;;4.42;4.03;;;;;;;24.34;100.00;100858.65;1798701;78;21036;-94
2022/07/17 06:31:29;;;;;;;5.03;4.58;;;;;;;24.44;100.00;100866.27;1797002;78;21501;-95
2022/07/17 06:33:56;;;;;;;5.00;3.95;;;;;;;24.54;100.00;100870.67;1793395;78;21137;-94
2022/07/17 06:36:24;;;;;;;5.15;3.55;;;;;;;24.67;100.00;100877.40;1795390;78;21082;-95
2022/07/17 06:38:51;;;;;;;5.70;3.90;;;;;;;24.79;100.00;100879.44;1795423;79;21038;-95
2022/07/17 06:41:18;;;;;;;4.90;3.90;;;;;;;24.91;100.00;100886.31;1795571;78;21075;-94
2022/07/17 06:43:45;;;;;;;4.22;3.83;;;;;;;25.00;100.00;100884.56;1762283;79;21071;-94
2022/07/17 06:46:12;;;;;;;3.92;3.52;;;;;;;25.12;100.00;100885.30;1782679;79;21112;-93
2022/07/17 06:48:40;;;;;;;6.78;3.30;;;;;;;25.19;97.33;100890.11;1756444;79;21539;-94
2022/07/17 06:51:07;;;;;;;3.95;3.27;;;;;;;25.25;95.74;100901.79;1773488;79;21105;-94
2022/07/17 06:53:35;;;;;;;3.62;3.33;;;;;;;25.29;100.00;100906.50;1778649;79;21635;-94
2022/07/17 06:56:03;;;;;;;3.58;3.05;;;;;;;25.29;96.39;100903.84;1777399;80;21039;-94
2022/07/17 06:58:31;;;;;;;3.42;3.17;;;;;;;25.27;97.43;100911.73;1775013;79;21149;-93
2022/07/17 07:00:58;;;;;;;3.45;3.15;;;;;;;25.25;100.00;100908.45;1781442;80;21046;-94
2022/07/17 07:03:25;;;;;;;5.80;3.20;;;;;;;25.22;100.00;100913.69;1781184;80;21561;-93
2022/07/17 07:05:52;;;;;;;4.60;3.40;;;;;;;25.20;100.00;100907.73;1772886;79;21013;-93
2022/07/17 07:08:21;;;;;;;3.42;3.12;;;;;;;25.15;100.00;100900.36;1782824;80;21026;-93
2022/07/17 07:10:48;;;;;;;4.28;3.60;;;;;;;25.06;100.00;100904.77;1783070;80;21130;-93
2022/07/17 07:13:15;;;;;;;3.05;2.85;;;;;;;24.94;95.82;100898.70;1771901;79;21037;-93
2022/07/17 07:15:42;;;;;;;3.67;3.37;;;;;;;24.84;100.00;100900.45;1775030;80;21049;-92
2022/07/17 07:18:10;;;;;;;3.45;3.02;;;;;;;24.78;96.71;100901.77;1781228;80;21018;-93
2022/07/17 07:20:38;;;;;;;3.80;3.42;;;;;;;24.76;94.79;100903.83;1781216;80;21035;-93
2022/07/17 07:23:05;;;;;;;3.80;3.33;;;;;;;24.75;92.04;100903.52;1774864;79;21158;-93
2022/07/17 07:25:32;;;;;;;3.58;2.87;;;;;;;24.77;97.49;100909.44;1780737;80;21564;-95
2022/07/17 07:28:01;;;;;;;4.37;3.20;;;;;;;24.89;98.43;100919.29;1779835;80;21031;-93
2022/07/17 07:30:28;;;;;;;5.75;3.33;;;;;;;25.03;96.17;100928.64;1778732;80;21025;-93
2022/07/17 07:32:56;;;;;;;4.05;3.60;;;;;;;25.14;98.97;100938.67;1781286;79;21122;-93
2022/07/17 07:35:23;;;;;;;4.55;3.80;;;;;;;25.22;100.00;100935.50;1781718;79;21119;-93
2022/07/17 07:37:50;;;;;;;4.05;3.65;;;;;;;25.23;100.00;100936.64;1780808;79;20987;-93
2022/07/17 07:40:17;;;;;;;4.55;4.08;;;;;;;25.23;100.00;100943.30;1781668;79;21083;-94
2022/07/17 07:42:44;;;;;;;4.83;3.90;;;;;;;25.23;99.22;100943.30;1762456;81;21012;-93
2022/07/17 07:45:11;;;;;;;4.40;4.00;;;;;;;25.22;100.00;100930.17;1778251;80;21523;-92
2022/07/17 07:47:49;;;;;;;5.55;3.95;;;;;;;25.17;100.00;100928.12;1751039;79;21095;-93
2022/07/17 07:50:18;;;;;;;5.47;3.83;;;;;;;25.07;100.00;100905.89;1754160;80;21038;-91
2022/07/17 07:52:46;;;;;;;9.75;3.90;;;;;;;24.92;100.00;100902.61;1755628;80;21080;-90
2022/07/17 07:55:14;;;;;;;4.53;3.70;;;;;;;24.73;100.00;100900.54;1766288;79;21082;-90
2022/07/17 07:57:41;;;;;;;4.90;3.70;;;;;;;24.61;100.00;100906.62;1764995;80;21133;-90
2022/07/17 08:00:11;;;;;;;4.28;3.42;;;;;;;24.52;100.00;100907.30;1766003;80;21113;-91
2022/07/17 08:02:41;;;;;;;3.85;3.33;;;;;;;24.54;100.00;100910.59;1767014;80;21033;-94
2022/07/17 08:05:09;;;;;;;3.62;3.27;;;;;;;24.65;100.00;100914.50;1762147;80;21483;-91
2022/07/17 08:07:36;;;;;;;3.30;3.00;;;;;;;24.75;100.00;100914.17;1772821;80;22220;-91
2022/07/17 08:10:05;;;;;;;3.80;3.47;;;;;;;24.84;100.00;100912.92;1774009;80;21081;-91
2022/07/17 08:12:33;;;;;;;3.20;2.90;;;;;;;24.88;100.00;100924.30;1773939;80;21152;-91
2022/07/17 08:15:02;;;;;;;3.67;3.37;;;;;;;24.85;100.00;100930.05;1773556;79;21520;-93
2022/07/17 08:17:29;;;;;;;5.30;3.12;;;;;;;24.77;100.00;100920.09;1774124;80;21014;-92
2022/07/17 08:19:57;;;;;;;7.08;3.67;;;;;;;24.65;100.00;100924.66;1774119;80;21035;-92
2022/07/17 08:22:24;;;;;;;4.47;4.08;;;;;;;24.52;100.00;100928.11;1773655;80;21030;-91
2022/07/17 08:24:52;;;;;;;4.65;4.15;;;;;;;24.41;100.00;100929.51;1772106;79;21360;-91
2022/07/17 08:27:22;;;;;;;4.75;4.33;;;;;;;24.31;100.00;100938.89;1776031;80;21065;-91
2022/07/17 08:29:49;;;;;;;5.10;4.53;;;;;;;24.30;100.00;100934.58;1775317;80;21551;-92
2022/07/17 08:32:16;;;;;;;5.03;4.40;;;;;;;24.36;100.00;100943.09;1770326;79;21090;-93
2022/07/17 08:34:43;;;;;;;4.90;4.50;;;;;;;24.50;100.00;100934.66;1768565;79;21092;-92
2022/07/17 08:37:10;;;;;;;4.80;4.28;;;;;;;24.77;100.00;100928.91;1769081;80;21266;-92
2022/07/17 08:39:37;;;;;;;5.03;4.37;;;;;;;25.04;100.00;100931.09;1772675;79;21085;-93
2022/07/17 08:42:07;;;;;;;5.00;4.10;;;;;;;25.23;100.00;100930.48;1775515;79;21010;-91
2022/07/17 08:44:33;;;;;;;4.90;4.50;;;;;;;25.19;100.00;100929.58;1770888;80;21026;-93
2022/07/17 08:47:02;;;;;;;5.55;4.30;;;;;;;25.08;100.00;100916.05;1783775;79;21564;-91
2022/07/17 08:49:31;;;;;;;4.97;4.58;;;;;;;24.94;100.00;100915.21;1791290;79;21558;-93
2022/07/17 08:51:58;;;;;;;5.70;5.20;;;;;;;24.77;100.00;100914.77;1791609;79;21489;-90
2022/07/17 08:54:25;;;;;;;11.22;5.53;;;;;;;24.52;100.00;100932.59;1786995;78;21496;-91
2022/07/17 08:56:53;;;;;;;6.72;6.17;;;;;;;24.25;100.00;100934.66;1786892;78;21025;-93
2022/07/17 08:59:20;;;;;;;7.58;6.87;;;;;;;24.02;100.00;100941.63;1788813;79;21111;-92
2022/07/17 09:01:47;;;;;;;7.92;7.22;;;;;;;23.74;100.00;100942.97;1791724;78;21836;-91
2022/07/17 09:04:17;;;;;;;8.18;7.47;;;;;;;23.50;100.00;100945.05;1792107;79;21050;-91
2022/07/17 09:06:44;;;;;;;8.13;7.53;;;;;;;23.44;100.00;100948.45;1791967;78;21021;-92
2022/07/17 09:09:14;;;;;;;9.03;7.85;;;;;;;23.48;100.00;100935.11;1791127;78;21585;-91
2022/07/17 09:11:50;;;;;;;10.45;9.00;;;;;;;23.56;100.00;100940.28;1774225;79;21065;-91
2022/07/17 09:14:20;;;;;;;9.75;8.88;;;;;;;23.43;100.00;100949.50;1769227;80;21117;-93
2022/07/17 09:16:57;;;;;;;10.78;9.85;;;;;;;23.25;100.00;100951.27;1773850;79;21007;-91
2022/07/17 09:19:40;;;;;;;10.65;9.58;;;;;;;23.10;100.00;100959.30;1775389;80;21040;-93
2022/07/17 09:22:16;;;;;;;10.50;9.33;;;;;;;22.97;100.00;100964.78;1759637;80;21031;-92
2022/07/17 09:24:55;;;;;;;9.93;9.03;;;;;;;22.90;100.00;100978.49;1766500;79;21075;-95
2022/07/17 09:27:31;;;;;;;8.85;8.05;;;;;;;22.92;100.00;100966.34;1775171;80;21817;-92
2022/07/17 09:30:06;;;;;;;8.50;7.70;;;;;;;22.92;100.00;100965.86;1801477;78;21539;-93
2022/07/17 09:32:36;;;;;;;8.78;6.47;;;;;;;22.94;100.00;100966.50;1801316;78;21053;-93
2022/07/17 09:35:07;;;;;;;7.10;6.42;;;;;;;22.97;100.00;100966.11;1802300;78;21027;-95
2022/07/17 09:37:35;;;;;;;6.42;5.65;;;;;;;22.92;100.00;100973.83;1806914;78;21098;-94
2022/07/17 09:40:11;;;;;;;6.42;5.62;;;;;;;22.84;100.00;100972.09;1809182;78;21785;-92
2022/07/17 09:42:38;;;;;;;5.70;5.20;;;;;;;22.84;100.00;100972.62;1805994;78;21059;-92
2022/07/17 09:45:09;;;;;;;6.42;4.75;;;;;;;22.92;100.00;100973.83;1804997;78;21106;-94
2022/07/17 09:47:38;;;;;;;4.97;4.58;;;;;;;22.96;100.00;100977.73;1783230;79;21334;-93
2022/07/17 09:50:08;;;;;;;5.47;4.58;;;;;;;22.88;100.00;100989.80;1780504;79;21033;-94
2022/07/17 09:52:38;;;;;;;4.75;4.35;;;;;;;22.84;100.00;100987.22;1781098;79;21917;-93
2022/07/17 09:55:06;;;;;;;4.60;4.20;;;;;;;22.71;100.00;100987.08;1780399;79;21068;-92
2022/07/17 09:57:34;;;;;;;4.60;4.20;;;;;;;22.59;100.00;100992.86;1779967;79;21070;-92
2022/07/17 10:00:06;;;;;;;4.47;4.00;;;;;;;22.47;100.00;100993.83;1780861;79;21546;-89
2022/07/17 10:02:42;;;;;;;6.42;3.85;;;;;;;22.24;100.00;101009.00;1785259;78;21063;-90
2022/07/17 10:05:15;;;;;;;6.85;3.90;;;;;;;21.84;100.00;101003.93;1786661;79;21817;-91
2022/07/17 10:07:47;;;;;;;7.20;3.65;;;;;;;21.51;100.00;100997.59;1785916;78;21000;-91
2022/07/17 10:10:17;;;;;;;4.28;3.75;;;;;;;21.27;100.00;100991.48;1786331;78;21086;-92
2022/07/17 10:12:47;;;;;;;6.28;4.50;;;;;;;21.21;100.00;100990.84;1785795;78;21079;-92
2022/07/17 10:15:15;;;;;;;7.35;4.50;;;;;;;21.21;100.00;100990.36;1786477;80;21580;-90
2022/07/17 10:17:43;;;;;;;4.78;3.55;;;;;;;21.26;100.00;100990.64;1786024;78;21560;-90
2022/07/17 10:20:11;;;;;;;3.25;3.02;;;;;;;21.23;100.00;101002.09;1786188;79;21489;-91
2022/07/17 10:22:44;;;;;;;3.83;3.42;;;;;;;21.15;100.00;100995.53;1770760;79;21119;-92
2022/07/17 10:25:16;;;;;;;7.00;3.30;;;;;;;21.12;100.00;100990.91;1749759;81;21061;-94
2022/07/17 10:27:53;;;;;;;4.42;3.90;;;;;;;21.18;100.00;100992.54;1761182;79;21863;-92
2022/07/17 10:30:28;;;;;;;7.12;3.55;;;;;;;21.24;100.00;100992.64;1774195;80;21145;-93
2022/07/17 10:32:58;;;;;;;5.95;3.67;;;;;;;21.27;100.00;100994.95;1775482;80;21090;-91
2022/07/17 10:35:28;;;;;;;4.30;3.60;;;;;;;21.30;100.00;100988.47;1769945;79;21044;-90
2022/07/17 10:38:13;;;;;;;4.35;3.80;;;;;;;21.39;100.00;100986.59;1774875;80;21088;-91
2022/07/17 10:40:41;;;;;;;5.75;3.37;;;;;;;21.46;100.00;100984.03;1773933;80;21043;-90
2022/07/17 10:43:10;;;;;;;3.37;3.17;;;;;;;21.53;100.00;100980.99;1768562;80;21891;-90
2022/07/17 10:45:44;;;;;;;5.47;3.72;;;;;;;21.67;100.00;100978.09;1760579;80;21555;-89
2022/07/17 10:48:16;;;;;;;5.17;3.92;;;;;;;21.85;100.00;100969.80;1737043;81;21539;-91
2022/07/17 10:50:53;;;;;;;4.83;3.60;;;;;;;21.96;100.00;100965.87;1784721;79;21079;-91
2022/07/17 10:53:35;;;;;;;4.72;3.58;;;;;;;22.04;100.00;100970.60;1733685;81;21079;-91
2022/07/17 10:56:12;;;;;;;3.70;3.40;;;;;;;22.20;100.00;100960.30;1724132;81;21159;-92
2022/07/17 10:58:42;;;;;;;4.33;3.40;;;;;;;22.47;100.00;100966.49;1743944;80;21089;-92
2022/07/17 11:01:15;;;;;;;3.85;3.40;;;;;;;22.63;100.00;100975.56;1750871;81;21065;-91
2022/07/17 11:03:46;;;;;;;3.72;3.42;;;;;;;22.65;100.00;100973.53;1756980;80;21366;-91
2022/07/17 11:06:20;;;;;;;4.47;3.90;;;;;;;22.59;100.00;100974.28;1750596;80;21307;-92
2022/07/17 11:08:56;;;;;;;4.90;3.83;;;;;;;22.53;100.00;100975.84;1741996;80;21926;-90
2022/07/17 11:11:37;;;;;;;3.92;3.52;;;;;;;22.48;100.00;100974.26;1750632;81;21029;-92
2022/07/17 11:14:25;;;;;;;6.22;4.05;;;;;;;22.42;100.00;100982.13;1750634;81;22276;-89
2022/07/17 11:16:56;;;;;;;4.20;3.80;;;;;;;22.26;100.00;100992.41;1748456;81;21017;-89
2022/07/17 11:19:38;;;;;;;4.50;3.65;;;;;;;22.06;100.00;101007.04;1751036;80;21025;-91